createdAt,value
2022-12-14T00:01:14.929Z,15.78
2022-12-14T00:04:16.694Z,15.78
2022-12-14T00:07:18.190Z,15.77
2022-12-14T00:10:20.362Z,15.76
2022-12-14T00:13:21.807Z,15.76
2022-12-14T00:16:25.463Z,15.76
2022-12-14T00:19:26.995Z,15.75
2022-12-14T00:22:29.114Z,15.74
2022-12-14T00:25:30.729Z,15.75
2022-12-14T00:28:32.208Z,15.74
2022-12-14T00:31:33.808Z,15.73
2022-12-14T00:34:35.313Z,15.72
2022-12-14T00:37:37.327Z,15.73
2022-12-14T00:40:39.324Z,15.71
2022-12-14T00:43:40.896Z,15.71
2022-12-14T00:46:42.500Z,15.71
2022-12-14T00:49:44.013Z,15.72
2022-12-14T00:52:45.546Z,15.73
2022-12-14T00:55:49.606Z,15.73
2022-12-14T00:58:52.691Z,15.72
2022-12-14T01:01:54.239Z,15.72
2022-12-14T01:04:55.734Z,15.72
2022-12-14T01:07:57.214Z,15.70
2022-12-14T01:10:58.678Z,15.70
2022-12-14T01:14:00.159Z,15.70
2022-12-14T01:17:01.796Z,15.71
2022-12-14T01:20:04.382Z,15.72
2022-12-14T01:23:05.863Z,15.72
2022-12-14T01:26:07.692Z,15.72
2022-12-14T01:29:11.446Z,15.73
2022-12-14T01:32:13.184Z,15.71
2022-12-14T01:35:14.741Z,15.71
2022-12-14T01:38:16.256Z,15.70
2022-12-14T01:41:24.636Z,15.70
2022-12-14T01:44:26.056Z,15.69
2022-12-14T01:47:38.409Z,15.70
2022-12-14T01:50:44.932Z,15.68
2022-12-14T01:53:46.939Z,15.69
2022-12-14T01:56:48.636Z,15.67
2022-12-14T01:59:50.508Z,15.69
2022-12-14T02:03:04.505Z,15.70
2022-12-14T02:06:27.044Z,15.69
2022-12-14T02:09:38.232Z,15.68
2022-12-14T02:12:49.590Z,15.67
2022-12-14T02:15:52.274Z,15.66
2022-12-14T02:18:53.793Z,15.66
2022-12-14T02:22:13.802Z,15.65
2022-12-14T02:25:31.664Z,15.65
2022-12-14T02:28:44.458Z,15.66
2022-12-14T02:32:02.488Z,15.68
2022-12-14T02:35:17.666Z,15.66
2022-12-14T02:38:22.482Z,15.68
2022-12-14T02:41:30.484Z,15.66
2022-12-14T02:44:59.117Z,15.69
2022-12-14T02:48:12.888Z,15.67
2022-12-14T02:51:26.420Z,15.66
2022-12-14T02:54:44.690Z,15.66
2022-12-14T02:58:03.492Z,15.66
2022-12-14T03:01:07.948Z,15.64
2022-12-14T03:04:09.530Z,15.64
2022-12-14T03:07:34.104Z,15.65
2022-12-14T03:10:52.635Z,15.66
2022-12-14T03:14:00.825Z,15.65
2022-12-14T03:17:19.712Z,15.66
2022-12-14T03:20:25.638Z,15.64
2022-12-14T03:23:33.911Z,15.65
2022-12-14T03:27:07.726Z,15.66
2022-12-14T03:30:23.742Z,15.66
2022-12-14T03:33:41.179Z,15.64
2022-12-14T03:36:49.526Z,15.63
2022-12-14T03:39:51.169Z,15.63
2022-12-14T03:42:55.320Z,15.64
2022-12-14T03:46:05.795Z,15.65
2022-12-14T03:49:21.459Z,15.65
2022-12-14T03:52:37.641Z,15.64
2022-12-14T03:56:19.528Z,15.63
2022-12-14T03:59:34.206Z,15.62
2022-12-14T04:02:47.933Z,15.62
2022-12-14T04:06:00.017Z,15.63
2022-12-14T04:09:16.685Z,15.63
2022-12-14T04:12:57.465Z,15.65
2022-12-14T04:16:23.120Z,15.66
2022-12-14T04:19:34.788Z,15.69
2022-12-14T04:22:43.849Z,15.66
2022-12-14T04:26:05.607Z,15.68
2022-12-14T04:29:31.310Z,15.68
2022-12-14T04:32:41.483Z,15.70
2022-12-14T04:35:43.568Z,15.70
2022-12-14T04:38:49.248Z,15.73
2022-12-14T04:41:56.109Z,15.73
2022-12-14T04:45:08.003Z,15.74
2022-12-14T04:48:24.590Z,15.73
2022-12-14T04:51:36.272Z,15.73
2022-12-14T04:54:45.597Z,15.72
2022-12-14T04:57:58.986Z,15.71
2022-12-14T05:01:15.833Z,15.72
2022-12-14T05:04:27.272Z,15.74
2022-12-14T05:07:36.296Z,15.72
2022-12-14T05:10:37.752Z,15.73
2022-12-14T05:13:48.887Z,15.74
2022-12-14T05:16:50.657Z,15.71
2022-12-14T05:19:54.151Z,15.71
2022-12-14T05:22:55.676Z,15.70
2022-12-14T05:25:57.210Z,15.70
2022-12-14T05:28:58.756Z,15.69
2022-12-14T05:32:01.652Z,15.68
2022-12-14T05:35:04.617Z,15.69
2022-12-14T05:38:06.118Z,15.67
2022-12-14T05:41:07.700Z,15.67
2022-12-14T05:44:09.538Z,15.66
2022-12-14T05:47:10.988Z,15.65
2022-12-14T05:50:12.461Z,15.65
2022-12-14T05:53:13.931Z,15.67
2022-12-14T05:56:15.588Z,15.66
2022-12-14T05:59:17.446Z,15.67
2022-12-14T06:02:19.036Z,15.66
2022-12-14T06:05:20.592Z,15.69
2022-12-14T06:08:22.105Z,15.70
2022-12-14T06:11:24.402Z,15.73
2022-12-14T06:14:25.851Z,15.76
2022-12-14T06:17:27.347Z,15.77
2022-12-14T06:20:28.844Z,15.78
2022-12-14T06:23:30.709Z,15.80
2022-12-14T06:26:33.918Z,15.81
2022-12-14T06:29:35.377Z,15.82
2022-12-14T06:32:37.455Z,15.84
2022-12-14T06:35:43.694Z,15.84
2022-12-14T06:38:45.990Z,15.83
2022-12-14T06:41:53.448Z,15.83
2022-12-14T06:44:54.935Z,15.81
2022-12-14T06:47:56.593Z,15.80
2022-12-14T06:51:01.790Z,15.79
2022-12-14T06:54:03.337Z,15.77
2022-12-14T06:57:04.864Z,15.75
2022-12-14T07:00:07.087Z,15.74
2022-12-14T07:03:09.944Z,15.73
2022-12-14T07:06:11.449Z,15.72
2022-12-14T07:09:14.254Z,15.72
2022-12-14T07:12:15.727Z,15.70
2022-12-14T07:15:17.181Z,15.71
2022-12-14T07:18:19.764Z,15.69
2022-12-14T07:21:22.623Z,15.69
2022-12-14T07:24:24.088Z,15.66
2022-12-14T07:27:25.752Z,15.65
2022-12-14T07:30:27.311Z,15.65
2022-12-14T07:33:29.769Z,15.65
2022-12-14T07:36:32.863Z,15.65
2022-12-14T07:39:34.389Z,15.63
2022-12-14T07:42:35.891Z,15.64
2022-12-14T07:45:44.452Z,15.63
2022-12-14T07:48:47.931Z,15.64
2022-12-14T07:51:49.504Z,15.62
2022-12-14T07:54:50.970Z,15.61
2022-12-14T07:57:52.420Z,15.60
2022-12-14T08:00:53.923Z,15.59
2022-12-14T08:04:01.626Z,15.61
2022-12-14T08:07:03.179Z,15.58
2022-12-14T08:10:05.047Z,15.60
2022-12-14T08:13:06.663Z,15.60
2022-12-14T08:16:10.887Z,15.59
2022-12-14T08:19:13.231Z,15.59
2022-12-14T08:22:14.771Z,15.58
2022-12-14T08:25:16.355Z,15.58
2022-12-14T08:28:18.001Z,15.57
2022-12-14T08:31:21.616Z,15.59
2022-12-14T08:34:23.179Z,15.60
2022-12-14T08:37:24.644Z,15.60
2022-12-14T08:40:26.749Z,15.62
2022-12-14T08:43:28.702Z,15.61
2022-12-14T08:46:34.643Z,15.62
2022-12-14T08:49:36.139Z,15.61
2022-12-14T08:52:38.434Z,15.60
2022-12-14T08:55:39.958Z,15.61
2022-12-14T08:58:41.505Z,15.61
2022-12-14T09:01:43.098Z,15.64
2022-12-14T09:04:44.734Z,15.66
2022-12-14T09:07:46.419Z,15.69
2022-12-14T09:10:51.666Z,15.74
2022-12-14T09:13:54.319Z,15.75
2022-12-14T09:16:55.829Z,15.76
2022-12-14T09:19:58.046Z,15.77
2022-12-14T09:22:59.523Z,15.77
2022-12-14T09:26:10.836Z,15.79
2022-12-14T09:29:16.776Z,15.81
2022-12-14T09:32:18.311Z,15.80
2022-12-14T09:35:19.840Z,15.82
2022-12-14T09:38:21.316Z,15.85
2022-12-14T09:41:35.352Z,15.90
2022-12-14T09:44:58.876Z,15.96
2022-12-14T09:48:16.753Z,16.04
2022-12-14T09:51:21.120Z,16.12
2022-12-14T09:54:31.290Z,16.18
2022-12-14T09:57:41.493Z,16.24
2022-12-14T10:00:56.159Z,16.32
2022-12-14T10:04:19.352Z,16.39
2022-12-14T10:08:05.840Z,16.49
2022-12-14T10:11:11.449Z,16.61
2022-12-14T10:14:27.307Z,16.73
2022-12-14T10:17:55.548Z,16.88
2022-12-14T10:21:13.307Z,17.07
2022-12-14T10:24:24.772Z,17.20
2022-12-14T10:27:47.638Z,17.33
2022-12-14T10:30:57.272Z,17.45
2022-12-14T10:34:12.535Z,17.57
2022-12-14T10:37:14.030Z,17.64
2022-12-14T10:40:33.656Z,17.73
2022-12-14T10:44:04.159Z,17.80
2022-12-14T10:47:32.577Z,17.86
2022-12-14T10:50:34.072Z,17.93
2022-12-14T10:54:10.647Z,17.99
2022-12-14T10:57:18.396Z,18.04
2022-12-14T11:00:23.825Z,18.08
2022-12-14T11:03:25.879Z,18.11
2022-12-14T11:06:27.421Z,18.13
2022-12-14T11:09:29.773Z,18.15
2022-12-14T11:12:31.357Z,18.17
2022-12-14T11:15:39.438Z,18.19
2022-12-14T11:18:40.918Z,18.20
2022-12-14T11:21:42.842Z,18.22
2022-12-14T11:24:46.810Z,18.24
2022-12-14T11:27:49.976Z,18.24
2022-12-14T11:31:13.213Z,18.27
2022-12-14T11:34:38.195Z,18.30
2022-12-14T11:37:39.713Z,18.28
2022-12-14T11:40:41.343Z,18.27
2022-12-14T11:43:42.918Z,18.29
2022-12-14T11:47:18.112Z,18.32
2022-12-14T11:50:31.194Z,18.32
2022-12-14T11:53:32.682Z,18.31
2022-12-14T11:56:36.549Z,18.33
2022-12-14T11:59:42.254Z,18.31
2022-12-14T12:02:50.951Z,18.34
2022-12-14T12:05:54.578Z,18.34
2022-12-14T12:09:00.200Z,18.33
2022-12-14T12:12:01.753Z,18.30
2022-12-14T12:15:03.867Z,18.28
2022-12-14T12:18:13.924Z,18.27
2022-12-14T12:21:21.520Z,18.24
2022-12-14T12:24:55.100Z,18.19
2022-12-14T12:28:26.041Z,18.20
2022-12-14T12:31:56.174Z,18.19
2022-12-14T12:35:11.568Z,18.18
2022-12-14T12:38:25.733Z,18.17
2022-12-14T12:42:15.147Z,18.16
2022-12-14T12:45:25.605Z,18.11
2022-12-14T12:48:49.458Z,18.10
2022-12-14T12:52:02.246Z,18.08
2022-12-14T12:55:19.575Z,18.07
2022-12-14T12:58:29.295Z,18.04
2022-12-14T13:01:47.016Z,17.98
2022-12-14T13:04:52.872Z,17.92
2022-12-14T13:08:01.516Z,17.85
2022-12-14T13:11:26.268Z,17.80
2022-12-14T13:14:50.073Z,17.78
2022-12-14T13:18:40.708Z,17.73
2022-12-14T13:21:44.660Z,17.72
2022-12-14T13:24:58.959Z,17.73
2022-12-14T13:28:05.916Z,17.74
2022-12-14T13:31:12.699Z,17.77
2022-12-14T13:34:25.475Z,17.83
2022-12-14T13:37:39.234Z,17.84
2022-12-14T13:41:08.790Z,17.91
2022-12-14T13:44:24.848Z,17.94
2022-12-14T13:47:30.079Z,17.98
2022-12-14T13:50:49.829Z,18.04
2022-12-14T13:54:02.882Z,18.07
2022-12-14T13:57:13.090Z,18.12
2022-12-14T14:00:49.735Z,18.16
2022-12-14T14:04:16.289Z,18.16
2022-12-14T14:07:23.786Z,18.19
2022-12-14T14:10:31.924Z,18.21
2022-12-14T14:13:53.633Z,18.20
2022-12-14T14:17:18.993Z,18.23
2022-12-14T14:20:45.900Z,18.25
2022-12-14T14:23:57.592Z,18.24
2022-12-14T14:27:06.587Z,18.20
2022-12-14T14:30:36.255Z,18.21
2022-12-14T14:33:49.149Z,18.19
2022-12-14T14:36:51.941Z,18.18
2022-12-14T14:40:26.194Z,18.17
2022-12-14T14:43:39.149Z,18.14
2022-12-14T14:46:47.190Z,18.11
2022-12-14T14:49:57.750Z,18.10
2022-12-14T14:53:07.678Z,18.08
2022-12-14T14:56:35.036Z,18.07
2022-12-14T14:59:43.487Z,18.06
2022-12-14T15:02:54.270Z,18.02
2022-12-14T15:05:57.740Z,18.01
2022-12-14T15:09:05.380Z,17.99
2022-12-14T15:12:24.853Z,17.98
2022-12-14T15:15:28.938Z,17.95
2022-12-14T15:18:32.084Z,17.95
2022-12-14T15:21:33.671Z,17.95
2022-12-14T15:24:39.448Z,17.96
2022-12-14T15:27:41.647Z,17.95
2022-12-14T15:30:47.601Z,17.95
2022-12-14T15:33:49.207Z,17.95
2022-12-14T15:36:51.748Z,17.95
2022-12-14T15:40:10.554Z,17.99
2022-12-14T15:43:21.213Z,18.02
2022-12-14T15:46:32.019Z,18.03
2022-12-14T15:49:33.507Z,18.04
2022-12-14T15:52:35.374Z,18.06
2022-12-14T15:55:40.965Z,18.08
2022-12-14T15:58:43.889Z,18.08
2022-12-14T16:01:54.208Z,18.07
2022-12-14T16:05:01.750Z,18.08
2022-12-14T16:08:03.424Z,18.05
2022-12-14T16:11:15.179Z,18.06
2022-12-14T16:14:43.960Z,17.90
2022-12-14T16:17:46.296Z,17.42
2022-12-14T16:21:00.722Z,16.83
2022-12-14T16:24:22.127Z,16.68
2022-12-14T16:27:27.675Z,16.83
2022-12-14T16:30:32.572Z,16.99
2022-12-14T16:33:35.731Z,17.15
2022-12-14T16:36:37.875Z,17.30
2022-12-14T16:39:45.575Z,17.43
2022-12-14T16:42:47.028Z,17.51
2022-12-14T16:45:54.705Z,17.62
2022-12-14T16:49:23.080Z,17.68
2022-12-14T16:52:35.652Z,17.72
2022-12-14T16:56:05.657Z,17.78
2022-12-14T16:59:20.833Z,17.81
2022-12-14T17:02:37.869Z,17.84
2022-12-14T17:05:41.713Z,17.87
2022-12-14T17:08:43.169Z,17.87
2022-12-14T17:11:45.352Z,17.89
2022-12-14T17:14:49.756Z,17.89
2022-12-14T17:17:53.803Z,17.91
2022-12-14T17:20:55.558Z,17.93
2022-12-14T17:23:57.543Z,17.94
2022-12-14T17:26:59.170Z,17.95
2022-12-14T17:30:00.662Z,17.96
2022-12-14T17:33:03.157Z,17.97
2022-12-14T17:36:05.900Z,17.98
2022-12-14T17:39:07.438Z,17.98
2022-12-14T17:42:12.457Z,18.00
2022-12-14T17:45:28.292Z,18.02
2022-12-14T17:48:30.052Z,18.01
2022-12-14T17:51:31.596Z,18.01
2022-12-14T17:54:34.067Z,18.02
2022-12-14T17:57:35.856Z,18.02
2022-12-14T18:00:56.575Z,18.02
2022-12-14T18:03:58.101Z,18.02
2022-12-14T18:06:59.683Z,18.00
2022-12-14T18:10:01.251Z,18.02
2022-12-14T18:13:05.348Z,18.01
2022-12-14T18:16:09.884Z,18.00
2022-12-14T18:19:11.866Z,17.98
2022-12-14T18:22:13.909Z,17.97
2022-12-14T18:25:41.183Z,17.98
2022-12-14T18:28:42.561Z,17.96
2022-12-14T18:31:44.163Z,17.91
2022-12-14T18:34:51.041Z,17.91
2022-12-14T18:37:52.585Z,17.91
2022-12-14T18:40:56.867Z,17.89
2022-12-14T18:44:00.454Z,17.86
2022-12-14T18:47:20.344Z,17.81
2022-12-14T18:50:24.467Z,17.29
2022-12-14T18:53:26.349Z,16.76
2022-12-14T18:56:29.146Z,16.72
2022-12-14T18:59:30.720Z,16.83
2022-12-14T19:02:32.818Z,16.94
2022-12-14T19:05:34.507Z,17.05
2022-12-14T19:08:36.061Z,17.15
2022-12-14T19:11:41.497Z,17.05
2022-12-14T19:14:42.999Z,16.59
2022-12-14T19:17:44.968Z,16.52
2022-12-14T19:20:49.735Z,16.66
2022-12-14T19:23:51.471Z,16.82
2022-12-14T19:26:52.930Z,16.97
2022-12-14T19:29:54.392Z,17.07
2022-12-14T19:32:58.185Z,17.19
2022-12-14T19:36:00.251Z,17.26
2022-12-14T19:39:01.827Z,17.32
2022-12-14T19:42:03.530Z,17.36
2022-12-14T19:45:06.135Z,17.40
2022-12-14T19:48:12.771Z,17.44
2022-12-14T19:51:14.872Z,17.45
2022-12-14T19:54:16.367Z,17.48
2022-12-14T19:57:17.956Z,17.49
2022-12-14T20:00:19.526Z,17.49
2022-12-14T20:03:21.762Z,17.52
2022-12-14T20:06:23.407Z,17.52
2022-12-14T20:09:24.892Z,17.52
2022-12-14T20:12:26.456Z,17.53
2022-12-14T20:15:28.046Z,17.53
2022-12-14T20:18:30.770Z,17.56
2022-12-14T20:21:34.114Z,17.54
2022-12-14T20:24:36.093Z,17.55
2022-12-14T20:27:40.658Z,17.55
2022-12-14T20:30:47.801Z,17.56
2022-12-14T20:33:50.728Z,17.56
2022-12-14T20:36:52.275Z,17.54
2022-12-14T20:39:53.846Z,17.54
2022-12-14T20:42:55.393Z,17.53
2022-12-14T20:45:56.913Z,17.52
2022-12-14T20:49:01.391Z,17.52
2022-12-14T20:52:02.853Z,17.50
2022-12-14T20:55:05.234Z,17.50
2022-12-14T20:58:06.767Z,17.51
2022-12-14T21:01:13.227Z,17.51
2022-12-14T21:04:14.924Z,17.49
2022-12-14T21:07:17.651Z,17.48
2022-12-14T21:10:21.769Z,17.47
2022-12-14T21:13:23.284Z,17.46
2022-12-14T21:16:24.823Z,17.46
2022-12-14T21:19:26.624Z,17.46
2022-12-14T21:22:30.316Z,17.45
2022-12-14T21:25:31.787Z,17.45
2022-12-14T21:28:33.264Z,17.43
2022-12-14T21:31:35.515Z,17.43
2022-12-14T21:34:41.045Z,17.45
2022-12-14T21:37:45.349Z,17.44
2022-12-14T21:41:14.350Z,17.44
2022-12-14T21:44:16.338Z,17.43
2022-12-14T21:47:20.753Z,17.43
2022-12-14T21:50:22.261Z,17.40
2022-12-14T21:53:23.752Z,17.40
2022-12-14T21:56:52.656Z,17.41
2022-12-14T21:59:55.719Z,17.39
2022-12-14T22:02:57.334Z,17.40
2022-12-14T22:05:58.940Z,17.39
2022-12-14T22:09:01.854Z,17.41
2022-12-14T22:12:03.523Z,17.39
2022-12-14T22:15:05.277Z,17.39
2022-12-14T22:18:06.836Z,17.39
2022-12-14T22:21:08.354Z,17.38
2022-12-14T22:24:10.532Z,17.38
2022-12-14T22:27:12.954Z,17.37
2022-12-14T22:30:14.610Z,17.35
2022-12-14T22:33:16.989Z,17.35
2022-12-14T22:36:18.487Z,17.34
2022-12-14T22:39:20.187Z,17.33
2022-12-14T22:42:22.067Z,17.31
2022-12-14T22:45:23.528Z,17.31
2022-12-14T22:48:24.987Z,17.31
2022-12-14T22:51:26.602Z,17.30
2022-12-14T22:54:29.875Z,17.29
2022-12-14T22:57:33.900Z,17.28
2022-12-14T23:00:35.457Z,17.28
2022-12-14T23:03:37.368Z,17.28
2022-12-14T23:06:40.889Z,17.26
2022-12-14T23:10:00.882Z,17.25
2022-12-14T23:13:20.809Z,17.26
2022-12-14T23:16:40.730Z,17.25
2022-12-14T23:20:04.676Z,17.25
2022-12-14T23:23:27.114Z,17.24
2022-12-14T23:26:47.732Z,17.24
2022-12-14T23:30:07.736Z,17.22
2022-12-14T23:33:28.007Z,17.23
2022-12-14T23:36:48.262Z,17.22
2022-12-14T23:40:08.534Z,17.22
2022-12-14T23:43:30.875Z,17.23
2022-12-14T23:46:52.685Z,17.22
2022-12-14T23:50:12.591Z,17.21
2022-12-14T23:53:32.795Z,17.22
2022-12-14T23:56:53.868Z,17.21
